createdAt,value
2022-10-09T00:01:26.013Z,14.38
2022-10-09T00:03:57.282Z,14.22
2022-10-09T00:06:27.592Z,14.12
2022-10-09T00:08:54.986Z,14.02
2022-10-09T00:11:26.975Z,14.07
2022-10-09T00:13:55.410Z,14.05
2022-10-09T00:16:23.688Z,13.99
2022-10-09T00:18:51.665Z,13.91
2022-10-09T00:21:28.167Z,13.83
2022-10-09T00:23:58.329Z,13.71
2022-10-09T00:26:26.593Z,13.65
2022-10-09T00:28:54.288Z,13.58
2022-10-09T00:31:22.327Z,13.59
2022-10-09T00:33:49.546Z,13.56
2022-10-09T00:36:22.923Z,13.51
2022-10-09T00:38:51.019Z,13.55
2022-10-09T00:41:21.702Z,13.42
2022-10-09T00:43:51.787Z,13.50
2022-10-09T00:46:34.861Z,13.47
2022-10-09T00:49:12.173Z,13.33
2022-10-09T00:51:40.756Z,13.20
2022-10-09T00:54:10.946Z,13.13
2022-10-09T00:56:38.337Z,13.07
2022-10-09T00:59:06.232Z,12.99
2022-10-09T01:01:33.594Z,13.11
2022-10-09T01:04:01.151Z,13.13
2022-10-09T01:06:48.216Z,13.18
2022-10-09T01:09:20.227Z,13.11
2022-10-09T01:12:01.466Z,13.14
2022-10-09T01:14:34.128Z,13.01
2022-10-09T01:17:20.262Z,13.05
2022-10-09T01:19:47.581Z,12.98
2022-10-09T01:22:26.913Z,12.96
2022-10-09T01:25:06.567Z,12.92
2022-10-09T01:27:36.269Z,12.93
2022-10-09T01:30:10.316Z,12.91
2022-10-09T01:32:46.594Z,12.88
2022-10-09T01:35:15.415Z,12.81
2022-10-09T01:37:46.022Z,12.89
2022-10-09T01:40:16.532Z,12.81
2022-10-09T01:42:43.818Z,12.77
2022-10-09T01:45:12.121Z,12.76
2022-10-09T01:47:39.690Z,12.81
2022-10-09T01:50:31.397Z,12.82
2022-10-09T01:53:10.461Z,12.86
2022-10-09T01:55:49.983Z,12.86
2022-10-09T01:58:57.268Z,12.95
2022-10-09T02:01:32.531Z,13.13
2022-10-09T02:04:02.920Z,13.16
2022-10-09T02:06:31.875Z,13.16
2022-10-09T02:09:00.243Z,13.19
2022-10-09T02:11:32.374Z,13.13
2022-10-09T02:14:00.602Z,13.16
2022-10-09T02:16:38.509Z,13.19
2022-10-09T02:19:35.947Z,13.27
2022-10-09T02:22:11.045Z,13.19
2022-10-09T02:24:40.479Z,13.13
2022-10-09T02:27:09.452Z,13.09
2022-10-09T02:29:40.222Z,13.03
2022-10-09T02:32:07.697Z,13.06
2022-10-09T02:34:35.132Z,13.10
2022-10-09T02:37:02.915Z,13.11
2022-10-09T02:39:30.401Z,13.24
2022-10-09T02:41:57.716Z,13.41
2022-10-09T02:44:25.035Z,13.44
2022-10-09T02:46:52.276Z,13.45
2022-10-09T02:49:19.865Z,13.60
2022-10-09T02:51:46.996Z,13.69
2022-10-09T02:54:14.221Z,13.66
2022-10-09T02:56:41.582Z,13.70
2022-10-09T02:59:08.915Z,13.97
2022-10-09T03:01:36.828Z,13.93
2022-10-09T03:04:04.496Z,13.78
2022-10-09T03:06:32.232Z,13.79
2022-10-09T03:08:59.464Z,13.58
2022-10-09T03:11:27.079Z,13.54
2022-10-09T03:13:55.033Z,13.45
2022-10-09T03:16:24.443Z,13.47
2022-10-09T03:18:52.848Z,13.38
2022-10-09T03:21:22.685Z,13.41
2022-10-09T03:23:50.724Z,13.47
2022-10-09T03:26:20.837Z,13.32
2022-10-09T03:28:50.286Z,13.34
2022-10-09T03:31:39.691Z,13.29
2022-10-09T03:34:07.240Z,13.30
2022-10-09T03:36:34.418Z,13.41
2022-10-09T03:39:01.934Z,13.39
2022-10-09T03:41:29.339Z,13.18
2022-10-09T03:43:56.621Z,13.19
2022-10-09T03:46:23.774Z,13.26
2022-10-09T03:48:51.102Z,13.39
2022-10-09T03:51:18.468Z,13.35
2022-10-09T03:53:46.186Z,13.28
2022-10-09T03:56:13.429Z,13.33
2022-10-09T03:58:40.633Z,13.21
2022-10-09T04:01:08.190Z,13.14
2022-10-09T04:03:35.441Z,13.21
2022-10-09T04:06:02.594Z,13.12
2022-10-09T04:08:29.757Z,13.05
2022-10-09T04:10:58.373Z,13.07
2022-10-09T04:13:26.679Z,13.08
2022-10-09T04:15:55.060Z,12.98
2022-10-09T04:18:22.770Z,12.94
2022-10-09T04:20:53.380Z,12.64
2022-10-09T04:23:24.987Z,12.88
2022-10-09T04:25:56.776Z,12.79
2022-10-09T04:28:24.741Z,12.66
2022-10-09T04:30:52.769Z,12.86
2022-10-09T04:33:20.098Z,12.85
2022-10-09T04:35:51.463Z,12.93
2022-10-09T04:38:20.340Z,12.95
2022-10-09T04:41:07.228Z,12.99
2022-10-09T04:43:35.805Z,12.95
2022-10-09T04:46:09.840Z,12.92
2022-10-09T04:48:41.656Z,12.97
2022-10-09T04:51:10.071Z,13.05
2022-10-09T04:53:40.261Z,13.10
2022-10-09T04:56:14.960Z,13.20
2022-10-09T04:58:42.739Z,13.19
2022-10-09T05:01:15.571Z,13.35
2022-10-09T05:03:43.482Z,13.42
2022-10-09T05:06:12.484Z,13.54
2022-10-09T05:08:40.974Z,13.45
2022-10-09T05:11:22.818Z,13.65
2022-10-09T05:13:56.420Z,13.60
2022-10-09T05:16:27.390Z,13.74
2022-10-09T05:18:57.240Z,13.85
2022-10-09T05:21:26.597Z,13.93
2022-10-09T05:23:55.069Z,13.96
2022-10-09T05:26:25.911Z,13.96
2022-10-09T05:28:53.316Z,13.95
2022-10-09T05:31:28.781Z,13.82
2022-10-09T05:33:59.875Z,13.90
2022-10-09T05:36:27.141Z,14.03
2022-10-09T05:38:56.724Z,14.14
2022-10-09T05:41:24.574Z,14.34
2022-10-09T05:43:52.639Z,14.40
2022-10-09T05:46:26.022Z,14.48
2022-10-09T05:48:55.672Z,14.47
2022-10-09T05:51:28.343Z,14.54
2022-10-09T05:53:57.423Z,14.62
2022-10-09T05:56:28.785Z,14.68
2022-10-09T05:59:00.357Z,14.63
2022-10-09T06:01:31.100Z,14.74
2022-10-09T06:04:00.256Z,14.78
2022-10-09T06:06:30.697Z,14.87
2022-10-09T06:08:59.067Z,15.04
2022-10-09T06:11:29.342Z,15.22
2022-10-09T06:13:58.848Z,15.20
2022-10-09T06:16:31.555Z,15.22
2022-10-09T06:19:00.131Z,15.33
2022-10-09T06:21:27.865Z,15.28
2022-10-09T06:23:57.564Z,15.28
2022-10-09T06:26:26.479Z,15.22
2022-10-09T06:28:53.670Z,15.34
2022-10-09T06:31:29.074Z,15.33
2022-10-09T06:33:58.421Z,15.35
2022-10-09T06:36:29.625Z,15.28
2022-10-09T06:38:59.136Z,15.34
2022-10-09T06:41:27.953Z,15.42
2022-10-09T06:44:00.748Z,15.50
2022-10-09T06:46:34.515Z,15.58
2022-10-09T06:49:03.200Z,15.48
2022-10-09T06:51:32.051Z,15.64
2022-10-09T06:54:02.366Z,15.80
2022-10-09T06:56:31.854Z,15.82
2022-10-09T06:59:01.035Z,15.81
2022-10-09T07:01:32.622Z,16.00
2022-10-09T07:04:07.217Z,16.06
2022-10-09T07:06:37.344Z,16.32
2022-10-09T07:09:08.727Z,16.38
2022-10-09T07:11:39.098Z,16.52
2022-10-09T07:14:09.829Z,16.66
2022-10-09T07:16:40.969Z,16.72
2022-10-09T07:19:11.417Z,16.79
2022-10-09T07:21:41.359Z,16.88
2022-10-09T07:24:09.426Z,16.87
2022-10-09T07:26:38.881Z,16.94
2022-10-09T07:29:07.990Z,17.05
2022-10-09T07:31:36.915Z,17.03
2022-10-09T07:34:07.094Z,16.95
2022-10-09T07:36:35.410Z,17.10
2022-10-09T07:39:04.512Z,17.11
2022-10-09T07:41:33.533Z,17.11
2022-10-09T07:44:01.192Z,17.14
2022-10-09T07:46:33.369Z,17.05
2022-10-09T07:49:02.202Z,17.05
2022-10-09T07:51:31.189Z,17.00
2022-10-09T07:54:00.331Z,17.03
2022-10-09T07:56:31.365Z,17.08
2022-10-09T07:59:04.543Z,17.03
2022-10-09T08:01:33.749Z,17.16
2022-10-09T08:04:01.938Z,17.22
2022-10-09T08:06:30.068Z,17.33
2022-10-09T08:09:01.095Z,17.36
2022-10-09T08:11:29.634Z,17.40
2022-10-09T08:13:57.477Z,17.54
2022-10-09T08:16:26.409Z,17.50
2022-10-09T08:18:56.174Z,17.58
2022-10-09T08:21:23.448Z,17.57
2022-10-09T08:23:55.695Z,17.48
2022-10-09T08:26:24.336Z,17.47
2022-10-09T08:28:58.001Z,17.46
2022-10-09T08:31:27.673Z,17.41
2022-10-09T08:33:58.134Z,17.46
2022-10-09T08:36:26.045Z,17.57
2022-10-09T08:38:53.620Z,17.60
2022-10-09T08:41:29.593Z,17.72
2022-10-09T08:44:25.857Z,17.64
2022-10-09T08:47:00.021Z,17.72
2022-10-09T08:49:59.437Z,17.72
2022-10-09T08:52:49.826Z,17.78
2022-10-09T08:55:28.278Z,17.74
2022-10-09T08:58:00.169Z,17.76
2022-10-09T09:00:30.986Z,17.77
2022-10-09T09:03:21.480Z,17.78
2022-10-09T09:06:06.581Z,17.80
2022-10-09T09:08:45.362Z,17.72
2022-10-09T09:11:20.627Z,17.80
2022-10-09T09:14:02.016Z,17.83
2022-10-09T09:16:44.073Z,17.93
2022-10-09T09:19:16.960Z,18.05
2022-10-09T09:21:52.621Z,18.21
2022-10-09T09:24:44.616Z,18.27
2022-10-09T09:27:17.520Z,18.40
2022-10-09T09:29:54.719Z,18.41
2022-10-09T09:32:26.086Z,18.53
2022-10-09T09:35:05.484Z,18.53
2022-10-09T09:37:32.744Z,18.53
2022-10-09T09:42:47.767Z,18.53
2022-10-09T09:45:21.308Z,18.63
2022-10-09T09:48:13.326Z,18.63
2022-10-09T09:50:50.555Z,18.57
2022-10-09T09:53:37.038Z,18.72
2022-10-09T09:56:05.714Z,18.78
2022-10-09T09:58:38.814Z,18.69
2022-10-09T10:01:08.421Z,18.84
2022-10-09T10:03:36.619Z,18.83
2022-10-09T10:06:04.311Z,18.87
2022-10-09T10:08:34.394Z,18.81
2022-10-09T10:11:08.307Z,18.84
2022-10-09T10:13:46.455Z,18.81
2022-10-09T10:16:28.849Z,18.86
2022-10-09T10:18:58.337Z,18.73
2022-10-09T10:21:25.710Z,18.79
2022-10-09T10:26:46.977Z,18.86
2022-10-09T10:29:29.527Z,18.97
2022-10-09T10:32:32.434Z,19.05
2022-10-09T10:35:03.505Z,19.08
2022-10-09T10:38:05.809Z,19.22
2022-10-09T10:40:38.250Z,19.22
2022-10-09T10:43:25.934Z,19.37
2022-10-09T10:46:21.713Z,19.41
2022-10-09T10:48:49.945Z,19.58
2022-10-09T10:51:32.433Z,19.52
2022-10-09T10:54:17.186Z,19.58
2022-10-09T10:56:56.635Z,19.62
2022-10-09T10:59:36.239Z,19.67
2022-10-09T11:02:32.520Z,19.69
2022-10-09T11:05:00.677Z,19.74
2022-10-09T11:08:00.190Z,19.81
2022-10-09T11:11:04.721Z,19.81
2022-10-09T11:13:49.355Z,19.78
2022-10-09T11:17:00.669Z,19.88
2022-10-09T11:20:19.863Z,19.94
2022-10-09T11:23:05.877Z,19.89
2022-10-09T11:25:48.480Z,19.94
2022-10-09T11:28:38.216Z,19.84
2022-10-09T11:31:23.924Z,19.90
2022-10-09T11:33:54.987Z,19.94
2022-10-09T11:36:27.820Z,20.00
2022-10-09T11:39:00.733Z,20.04
2022-10-09T11:41:30.441Z,19.99
2022-10-09T11:44:53.088Z,20.08
2022-10-09T11:47:47.214Z,20.10
2022-10-09T11:50:18.623Z,20.05
2022-10-09T11:52:53.999Z,20.05
2022-10-09T11:55:34.627Z,20.05
2022-10-09T11:58:24.412Z,20.07
2022-10-09T12:00:55.723Z,20.05
2022-10-09T12:03:33.796Z,20.03
2022-10-09T12:06:18.241Z,20.10
2022-10-09T12:08:57.532Z,20.10
2022-10-09T12:11:25.508Z,20.04
2022-10-09T12:14:00.675Z,20.05
2022-10-09T12:16:36.888Z,20.10
2022-10-09T12:19:26.332Z,20.08
2022-10-09T12:22:05.216Z,20.09
2022-10-09T12:24:45.669Z,20.09
2022-10-09T12:27:21.290Z,20.06
2022-10-09T12:30:16.450Z,20.15
2022-10-09T12:33:07.203Z,20.13
2022-10-09T12:35:37.872Z,20.12
2022-10-09T12:38:25.193Z,20.17
2022-10-09T12:40:55.222Z,20.13
2022-10-09T12:43:24.607Z,20.14
2022-10-09T12:45:54.617Z,20.13
2022-10-09T12:48:26.272Z,20.08
2022-10-09T12:50:54.601Z,20.09
2022-10-09T12:53:28.291Z,20.10
2022-10-09T12:56:01.450Z,20.05
2022-10-09T12:58:31.903Z,20.08
2022-10-09T13:01:12.176Z,20.10
2022-10-09T13:03:42.110Z,20.16
2022-10-09T13:06:18.105Z,20.16
2022-10-09T13:08:57.281Z,20.11
2022-10-09T13:11:35.650Z,20.13
2022-10-09T13:14:03.292Z,20.14
2022-10-09T13:16:44.684Z,20.12
2022-10-09T13:19:39.734Z,20.19
2022-10-09T13:22:08.614Z,20.16
2022-10-09T13:24:36.106Z,20.15
2022-10-09T13:27:04.848Z,20.14
2022-10-09T13:29:32.243Z,20.12
2022-10-09T13:31:59.442Z,20.12
2022-10-09T13:34:29.333Z,20.12
2022-10-09T13:36:57.235Z,20.11
2022-10-09T13:39:24.685Z,20.10
2022-10-09T13:41:57.681Z,20.06
2022-10-09T13:44:25.693Z,20.00
2022-10-09T13:46:54.104Z,20.15
2022-10-09T13:49:21.358Z,20.13
2022-10-09T13:51:48.983Z,20.14
2022-10-09T13:54:16.246Z,20.16
2022-10-09T13:56:43.469Z,20.16
2022-10-09T13:59:11.095Z,20.13
2022-10-09T14:01:39.080Z,20.16
2022-10-09T14:04:06.773Z,20.13
2022-10-09T14:06:37.927Z,20.15
2022-10-09T14:09:05.868Z,20.14
2022-10-09T14:11:34.015Z,20.15
2022-10-09T14:14:01.474Z,20.14
2022-10-09T14:16:29.886Z,20.07
2022-10-09T14:19:03.087Z,20.14
2022-10-09T14:21:30.558Z,20.04
2022-10-09T14:24:00.574Z,20.12
2022-10-09T14:26:28.732Z,20.15
2022-10-09T14:29:00.313Z,20.14
2022-10-09T14:31:28.337Z,20.13
2022-10-09T14:33:58.324Z,20.01
2022-10-09T14:36:26.786Z,20.14
2022-10-09T14:38:54.189Z,20.06
2022-10-09T14:41:22.758Z,20.09
2022-10-09T14:43:56.959Z,20.06
2022-10-09T14:46:25.792Z,20.13
2022-10-09T14:48:55.735Z,20.08
2022-10-09T14:51:26.027Z,20.11
2022-10-09T14:53:58.310Z,20.11
2022-10-09T14:56:26.854Z,20.05
2022-10-09T14:58:54.784Z,20.12
2022-10-09T15:01:23.593Z,20.11
2022-10-09T15:03:51.047Z,20.06
2022-10-09T15:06:20.296Z,19.99
2022-10-09T15:08:47.830Z,19.95
2022-10-09T15:11:15.730Z,20.07
2022-10-09T15:13:43.069Z,20.06
2022-10-09T15:16:14.264Z,20.09
2022-10-09T15:18:42.757Z,20.02
2022-10-09T15:21:15.560Z,20.10
2022-10-09T15:23:43.481Z,20.07
2022-10-09T15:26:11.316Z,20.01
2022-10-09T15:28:40.203Z,19.77
2022-10-09T15:31:15.107Z,20.00
2022-10-09T15:33:42.363Z,20.02
2022-10-09T15:36:09.849Z,19.96
2022-10-09T15:38:39.750Z,19.87
2022-10-09T15:41:07.134Z,19.78
2022-10-09T15:43:37.612Z,19.85
2022-10-09T15:46:08.188Z,19.74
2022-10-09T15:48:35.453Z,19.75
2022-10-09T15:51:13.624Z,19.71
2022-10-09T15:53:46.619Z,19.75
2022-10-09T15:56:22.558Z,19.66
2022-10-09T15:58:51.586Z,19.62
2022-10-09T16:01:19.626Z,19.62
2022-10-09T16:03:47.780Z,19.64
2022-10-09T16:06:17.726Z,19.52
2022-10-09T16:08:46.789Z,19.53
2022-10-09T16:11:20.177Z,19.51
2022-10-09T16:13:50.848Z,19.49
2022-10-09T16:16:21.276Z,19.45
2022-10-09T16:18:49.305Z,19.28
2022-10-09T16:21:26.149Z,19.32
2022-10-09T16:23:58.466Z,19.31
2022-10-09T16:26:28.259Z,19.20
2022-10-09T16:28:56.171Z,19.18
2022-10-09T16:31:28.409Z,19.21
2022-10-09T16:33:57.752Z,19.12
2022-10-09T16:36:24.910Z,19.07
2022-10-09T16:38:54.848Z,19.14
2022-10-09T16:41:23.563Z,19.13
2022-10-09T16:43:55.885Z,19.13
2022-10-09T16:46:30.504Z,19.21
2022-10-09T16:48:59.213Z,19.18
2022-10-09T16:51:29.516Z,19.19
2022-10-09T16:54:00.250Z,19.17
2022-10-09T16:56:39.029Z,19.11
2022-10-09T16:59:10.454Z,19.15
2022-10-09T17:01:42.776Z,19.15
2022-10-09T17:04:11.057Z,19.16
2022-10-09T17:06:40.573Z,19.14
2022-10-09T17:09:13.778Z,19.16
2022-10-09T17:11:42.015Z,19.15
2022-10-09T17:14:09.517Z,19.20
2022-10-09T17:16:38.912Z,19.13
2022-10-09T17:19:06.590Z,19.17
2022-10-09T17:21:34.813Z,19.20
2022-10-09T17:24:04.577Z,19.16
2022-10-09T17:26:32.055Z,19.16
2022-10-09T17:29:00.739Z,19.18
2022-10-09T17:31:29.980Z,19.19
2022-10-09T17:33:59.816Z,19.20
2022-10-09T17:36:29.702Z,19.22
2022-10-09T17:38:57.437Z,19.22
2022-10-09T17:41:26.734Z,19.21
2022-10-09T17:43:55.498Z,19.18
2022-10-09T17:46:24.643Z,19.20
2022-10-09T17:48:56.771Z,19.11
2022-10-09T17:51:30.253Z,19.23
2022-10-09T17:54:01.241Z,19.24
2022-10-09T17:56:30.422Z,19.21
2022-10-09T17:59:00.106Z,19.14
2022-10-09T18:01:27.442Z,19.23
2022-10-09T18:03:56.142Z,19.27
2022-10-09T18:06:24.418Z,19.25
2022-10-09T18:08:54.538Z,19.26
2022-10-09T18:11:23.318Z,19.23
2022-10-09T18:13:51.206Z,19.27
2022-10-09T18:16:36.378Z,19.22
2022-10-09T18:19:12.667Z,19.20
2022-10-09T18:21:43.187Z,19.21
2022-10-09T18:24:13.641Z,19.15
2022-10-09T18:26:41.701Z,19.17
2022-10-09T18:29:09.117Z,19.15
2022-10-09T18:31:38.661Z,19.05
2022-10-09T18:34:06.051Z,19.11
2022-10-09T18:36:35.052Z,19.06
2022-10-09T18:39:08.943Z,19.13
2022-10-09T18:41:37.063Z,19.08
2022-10-09T18:44:05.465Z,19.11
2022-10-09T18:46:38.184Z,19.06
2022-10-09T18:49:11.356Z,19.05
2022-10-09T18:51:42.556Z,19.02
2022-10-09T18:54:15.782Z,19.03
2022-10-09T18:56:47.162Z,19.02
2022-10-09T18:59:17.049Z,19.00
2022-10-09T19:01:44.268Z,18.92
2022-10-09T19:04:11.689Z,18.95
2022-10-09T19:06:39.235Z,18.91
2022-10-09T19:09:06.850Z,18.93
2022-10-09T19:11:34.778Z,18.93
2022-10-09T19:14:02.516Z,18.83
2022-10-09T19:16:32.525Z,18.93
2022-10-09T19:19:00.199Z,18.94
2022-10-09T19:21:27.743Z,18.95
2022-10-09T19:23:55.658Z,18.88
2022-10-09T19:26:23.915Z,18.90
2022-10-09T19:28:51.786Z,18.92
2022-10-09T19:31:18.987Z,18.88
2022-10-09T19:33:46.352Z,18.84
2022-10-09T19:36:15.106Z,18.85
2022-10-09T19:38:43.136Z,18.87
2022-10-09T19:41:13.114Z,18.82
2022-10-09T19:43:41.327Z,18.84
2022-10-09T19:46:14.136Z,18.83
2022-10-09T19:48:41.407Z,18.87
2022-10-09T19:51:12.260Z,18.78
2022-10-09T19:53:39.782Z,18.91
2022-10-09T19:56:11.742Z,18.93
2022-10-09T19:58:41.035Z,18.89
2022-10-09T20:01:11.325Z,18.89
2022-10-09T20:03:39.485Z,18.79
2022-10-09T20:06:08.989Z,18.91
2022-10-09T20:08:37.361Z,18.91
2022-10-09T20:11:05.926Z,18.83
2022-10-09T20:13:35.116Z,18.87
2022-10-09T20:16:06.472Z,18.81
2022-10-09T20:18:34.971Z,18.85
2022-10-09T20:21:03.124Z,18.72
2022-10-09T20:23:32.846Z,18.80
2022-10-09T20:26:11.446Z,18.78
2022-10-09T20:28:39.610Z,18.74
2022-10-09T20:31:10.499Z,18.72
2022-10-09T20:33:39.179Z,18.72
2022-10-09T20:36:07.501Z,18.71
2022-10-09T20:38:38.023Z,18.79
2022-10-09T20:41:07.671Z,18.79
2022-10-09T20:43:36.175Z,18.81
2022-10-09T20:46:09.608Z,18.83
2022-10-09T20:48:37.170Z,18.77
2022-10-09T20:51:05.782Z,18.77
2022-10-09T20:53:34.595Z,18.76
2022-10-09T20:56:08.436Z,18.75
2022-10-09T20:58:36.143Z,18.74
2022-10-09T21:01:08.259Z,18.74
2022-10-09T21:03:37.168Z,18.72
2022-10-09T21:06:11.527Z,18.74
2022-10-09T21:08:39.455Z,18.76
2022-10-09T21:11:09.099Z,18.72
2022-10-09T21:13:37.314Z,18.71
2022-10-09T21:16:10.620Z,18.75
2022-10-09T21:18:39.008Z,18.81
2022-10-09T21:21:15.240Z,18.80
2022-10-09T21:23:44.541Z,18.73
2022-10-09T21:26:14.549Z,18.72
2022-10-09T21:28:42.424Z,18.72
2022-10-09T21:31:11.412Z,18.65
2022-10-09T21:33:39.769Z,18.70
2022-10-09T21:36:12.760Z,18.77
2022-10-09T21:38:40.042Z,18.86
2022-10-09T21:41:07.579Z,18.90
2022-10-09T21:43:34.977Z,18.75
2022-10-09T21:46:02.246Z,18.85
2022-10-09T21:48:29.498Z,18.86
2022-10-09T21:50:58.422Z,18.96
2022-10-09T21:53:25.825Z,18.95
2022-10-09T21:55:52.996Z,18.90
2022-10-09T21:58:20.184Z,18.96
2022-10-09T22:00:56.039Z,18.90
2022-10-09T22:03:27.843Z,18.91
2022-10-09T22:05:55.434Z,18.81
2022-10-09T22:08:23.523Z,18.69
2022-10-09T22:10:51.512Z,18.67
2022-10-09T22:13:21.177Z,18.69
2022-10-09T22:15:51.110Z,18.62
2022-10-09T22:18:19.271Z,18.59
2022-10-09T22:20:49.341Z,18.50
2022-10-09T22:23:21.306Z,18.49
2022-10-09T22:25:59.430Z,18.58
2022-10-09T22:28:26.820Z,18.56
2022-10-09T22:31:25.015Z,18.70
2022-10-09T22:34:00.440Z,18.66
2022-10-09T22:36:29.887Z,18.67
2022-10-09T22:38:59.419Z,18.72
2022-10-09T22:41:28.467Z,18.77
2022-10-09T22:43:58.674Z,18.87
2022-10-09T22:46:29.378Z,18.88
2022-10-09T22:48:56.886Z,18.86
2022-10-09T22:51:26.088Z,18.85
2022-10-09T22:53:53.681Z,18.84
2022-10-09T22:56:23.876Z,18.93
2022-10-09T22:58:53.181Z,18.92
2022-10-09T23:01:38.492Z,18.98
2022-10-09T23:04:08.465Z,18.89
2022-10-09T23:06:35.951Z,18.93
2022-10-09T23:09:06.573Z,18.95
2022-10-09T23:11:33.828Z,18.90
2022-10-09T23:14:01.512Z,18.88
2022-10-09T23:16:30.467Z,18.93
2022-10-09T23:19:02.960Z,18.92
2022-10-09T23:21:32.900Z,18.95
2022-10-09T23:24:01.194Z,18.91
2022-10-09T23:26:31.025Z,18.90
2022-10-09T23:29:01.092Z,18.95
2022-10-09T23:31:29.591Z,18.95
2022-10-09T23:33:57.046Z,18.92
2022-10-09T23:36:27.621Z,18.78
2022-10-09T23:38:56.129Z,18.81
2022-10-09T23:41:25.566Z,18.86
2022-10-09T23:43:53.826Z,18.79
2022-10-09T23:46:23.909Z,18.81
2022-10-09T23:48:52.219Z,18.84
2022-10-09T23:51:21.072Z,18.82
2022-10-09T23:53:49.285Z,18.81
2022-10-09T23:56:16.855Z,18.77
2022-10-09T23:58:45.319Z,18.77
